sensor_id;sensor_type;location;lat;lon;timestamp;P1;durP1;ratioP1;P2;durP2;ratioP2
16957;SDS011;8595;52.542;11.974;2023-03-14T00:01:18;7.20;;;4.28;;
16957;SDS011;8595;52.542;11.974;2023-03-14T00:03:46;6.60;;;3.95;;
16957;SDS011;8595;52.542;11.974;2023-03-14T00:06:14;4.63;;;3.97;;
16957;SDS011;8595;52.542;11.974;2023-03-14T00:08:42;5.50;;;4.47;;
16957;SDS011;8595;52.542;11.974;2023-03-14T00:11:10;5.18;;;4.68;;
16957;SDS011;8595;52.542;11.974;2023-03-14T00:13:37;5.07;;;4.30;;
16957;SDS011;8595;52.542;11.974;2023-03-14T00:16:05;4.20;;;3.83;;
16957;SDS011;8595;52.542;11.974;2023-03-14T00:18:33;5.65;;;3.90;;
16957;SDS011;8595;52.542;11.974;2023-03-14T00:21:00;4.47;;;3.70;;
16957;SDS011;8595;52.542;11.974;2023-03-14T00:23:30;6.38;;;4.05;;
16957;SDS011;8595;52.542;11.974;2023-03-14T00:25:58;5.75;;;4.00;;
16957;SDS011;8595;52.542;11.974;2023-03-14T00:28:25;6.13;;;3.60;;
16957;SDS011;8595;52.542;11.974;2023-03-14T00:30:53;4.65;;;4.13;;
16957;SDS011;8595;52.542;11.974;2023-03-14T00:33:19;6.30;;;3.35;;
16957;SDS011;8595;52.542;11.974;2023-03-14T00:35:51;4.38;;;3.65;;
16957;SDS011;8595;52.542;11.974;2023-03-14T00:38:19;5.72;;;4.03;;
16957;SDS011;8595;52.542;11.974;2023-03-14T00:40:47;3.80;;;3.33;;
16957;SDS011;8595;52.542;11.974;2023-03-14T00:43:14;6.18;;;3.70;;
16957;SDS011;8595;52.542;11.974;2023-03-14T00:45:40;7.72;;;4.22;;
16957;SDS011;8595;52.542;11.974;2023-03-14T00:48:07;3.70;;;3.03;;
16957;SDS011;8595;52.542;11.974;2023-03-14T00:50:34;4.32;;;3.92;;
16957;SDS011;8595;52.542;11.974;2023-03-14T00:53:00;4.93;;;3.45;;
16957;SDS011;8595;52.542;11.974;2023-03-14T00:55:27;4.15;;;3.75;;
16957;SDS011;8595;52.542;11.974;2023-03-14T00:57:55;4.30;;;3.67;;
16957;SDS011;8595;52.542;11.974;2023-03-14T01:00:22;5.32;;;3.83;;
16957;SDS011;8595;52.542;11.974;2023-03-14T01:02:49;4.40;;;4.00;;
16957;SDS011;8595;52.542;11.974;2023-03-14T01:05:15;6.22;;;3.65;;
16957;SDS011;8595;52.542;11.974;2023-03-14T01:07:42;3.63;;;3.28;;
16957;SDS011;8595;52.542;11.974;2023-03-14T01:10:10;4.05;;;3.63;;
16957;SDS011;8595;52.542;11.974;2023-03-14T01:12:36;7.05;;;3.55;;
16957;SDS011;8595;52.542;11.974;2023-03-14T01:15:05;7.20;;;3.67;;
16957;SDS011;8595;52.542;11.974;2023-03-14T01:17:33;3.47;;;2.95;;
16957;SDS011;8595;52.542;11.974;2023-03-14T01:19:59;3.83;;;3.45;;
16957;SDS011;8595;52.542;11.974;2023-03-14T01:22:29;5.00;;;3.28;;
16957;SDS011;8595;52.542;11.974;2023-03-14T01:24:56;4.30;;;2.80;;
16957;SDS011;8595;52.542;11.974;2023-03-14T01:27:22;3.60;;;2.95;;
16957;SDS011;8595;52.542;11.974;2023-03-14T01:29:49;4.80;;;2.90;;
16957;SDS011;8595;52.542;11.974;2023-03-14T01:32:18;3.78;;;2.65;;
16957;SDS011;8595;52.542;11.974;2023-03-14T01:34:44;3.53;;;3.13;;
16957;SDS011;8595;52.542;11.974;2023-03-14T01:37:11;5.28;;;3.35;;
16957;SDS011;8595;52.542;11.974;2023-03-14T01:39:37;3.15;;;2.85;;
16957;SDS011;8595;52.542;11.974;2023-03-14T01:42:04;4.53;;;2.95;;
16957;SDS011;8595;52.542;11.974;2023-03-14T01:44:46;3.85;;;2.90;;
16957;SDS011;8595;52.542;11.974;2023-03-14T01:47:13;3.47;;;2.83;;
16957;SDS011;8595;52.542;11.974;2023-03-14T01:49:41;3.83;;;2.80;;
16957;SDS011;8595;52.542;11.974;2023-03-14T01:52:11;3.10;;;2.67;;
16957;SDS011;8595;52.542;11.974;2023-03-14T01:54:42;4.55;;;3.15;;
16957;SDS011;8595;52.542;11.974;2023-03-14T01:57:11;5.32;;;3.10;;
16957;SDS011;8595;52.542;11.974;2023-03-14T01:59:43;2.55;;;2.35;;
16957;SDS011;8595;52.542;11.974;2023-03-14T02:02:14;6.25;;;3.20;;
16957;SDS011;8595;52.542;11.974;2023-03-14T02:04:43;9.30;;;3.22;;
16957;SDS011;8595;52.542;11.974;2023-03-14T02:07:12;3.35;;;2.83;;
16957;SDS011;8595;52.542;11.974;2023-03-14T02:09:41;2.97;;;2.60;;
16957;SDS011;8595;52.542;11.974;2023-03-14T02:12:09;3.45;;;3.08;;
16957;SDS011;8595;52.542;11.974;2023-03-14T02:14:37;4.13;;;2.80;;
16957;SDS011;8595;52.542;11.974;2023-03-14T02:17:05;3.80;;;3.25;;
16957;SDS011;8595;52.542;11.974;2023-03-14T02:19:41;4.45;;;3.00;;
16957;SDS011;8595;52.542;11.974;2023-03-14T02:22:30;4.25;;;2.70;;
16957;SDS011;8595;52.542;11.974;2023-03-14T02:24:59;5.20;;;3.20;;
16957;SDS011;8595;52.542;11.974;2023-03-14T02:27:34;4.68;;;2.90;;
16957;SDS011;8595;52.542;11.974;2023-03-14T02:30:02;4.10;;;2.75;;
16957;SDS011;8595;52.542;11.974;2023-03-14T02:32:31;3.42;;;2.75;;
16957;SDS011;8595;52.542;11.974;2023-03-14T02:35:00;3.10;;;2.80;;
16957;SDS011;8595;52.542;11.974;2023-03-14T02:37:31;3.42;;;2.83;;
16957;SDS011;8595;52.542;11.974;2023-03-14T02:40:01;3.78;;;2.40;;
16957;SDS011;8595;52.542;11.974;2023-03-14T02:42:29;3.88;;;2.30;;
16957;SDS011;8595;52.542;11.974;2023-03-14T02:44:59;3.28;;;2.30;;
16957;SDS011;8595;52.542;11.974;2023-03-14T02:47:49;3.08;;;2.67;;
16957;SDS011;8595;52.542;11.974;2023-03-14T02:50:21;4.05;;;2.25;;
16957;SDS011;8595;52.542;11.974;2023-03-14T02:52:50;2.42;;;2.20;;
16957;SDS011;8595;52.542;11.974;2023-03-14T02:55:19;4.97;;;2.38;;
16957;SDS011;8595;52.542;11.974;2023-03-14T02:57:46;3.22;;;2.10;;
16957;SDS011;8595;52.542;11.974;2023-03-14T03:00:14;3.10;;;2.30;;
16957;SDS011;8595;52.542;11.974;2023-03-14T03:02:42;5.35;;;1.95;;
16957;SDS011;8595;52.542;11.974;2023-03-14T03:05:08;2.83;;;2.25;;
16957;SDS011;8595;52.542;11.974;2023-03-14T03:07:35;2.13;;;1.80;;
16957;SDS011;8595;52.542;11.974;2023-03-14T03:10:02;3.33;;;2.13;;
16957;SDS011;8595;52.542;11.974;2023-03-14T03:12:29;2.83;;;2.20;;
16957;SDS011;8595;52.542;11.974;2023-03-14T03:14:56;2.22;;;2.03;;
16957;SDS011;8595;52.542;11.974;2023-03-14T03:17:24;4.07;;;2.10;;
16957;SDS011;8595;52.542;11.974;2023-03-14T03:19:50;2.28;;;2.00;;
16957;SDS011;8595;52.542;11.974;2023-03-14T03:22:17;3.15;;;2.42;;
16957;SDS011;8595;52.542;11.974;2023-03-14T03:24:43;2.05;;;1.85;;
16957;SDS011;8595;52.542;11.974;2023-03-14T03:27:10;2.30;;;2.10;;
16957;SDS011;8595;52.542;11.974;2023-03-14T03:29:37;2.67;;;1.60;;
16957;SDS011;8595;52.542;11.974;2023-03-14T03:32:04;3.75;;;2.28;;
16957;SDS011;8595;52.542;11.974;2023-03-14T03:34:32;1.77;;;1.67;;
16957;SDS011;8595;52.542;11.974;2023-03-14T03:36:58;2.22;;;1.75;;
16957;SDS011;8595;52.542;11.974;2023-03-14T03:39:25;2.13;;;1.83;;
16957;SDS011;8595;52.542;11.974;2023-03-14T03:41:52;3.40;;;1.80;;
16957;SDS011;8595;52.542;11.974;2023-03-14T03:44:19;2.40;;;1.92;;
16957;SDS011;8595;52.542;11.974;2023-03-14T03:46:46;1.55;;;1.45;;
16957;SDS011;8595;52.542;11.974;2023-03-14T03:49:13;2.75;;;2.00;;
16957;SDS011;8595;52.542;11.974;2023-03-14T03:51:41;2.90;;;2.03;;
16957;SDS011;8595;52.542;11.974;2023-03-14T03:54:07;3.28;;;1.90;;
16957;SDS011;8595;52.542;11.974;2023-03-14T03:56:34;3.05;;;2.00;;
16957;SDS011;8595;52.542;11.974;2023-03-14T03:59:01;3.53;;;1.98;;
16957;SDS011;8595;52.542;11.974;2023-03-14T04:01:28;4.60;;;1.80;;
16957;SDS011;8595;52.542;11.974;2023-03-14T04:03:54;1.80;;;1.60;;
16957;SDS011;8595;52.542;11.974;2023-03-14T04:06:21;2.30;;;1.48;;
16957;SDS011;8595;52.542;11.974;2023-03-14T04:08:49;1.83;;;1.70;;
16957;SDS011;8595;52.542;11.974;2023-03-14T04:11:16;3.97;;;1.90;;
16957;SDS011;8595;52.542;11.974;2023-03-14T04:13:42;3.00;;;1.65;;
16957;SDS011;8595;52.542;11.974;2023-03-14T04:16:11;6.03;;;1.70;;
16957;SDS011;8595;52.542;11.974;2023-03-14T04:18:41;2.47;;;1.83;;
16957;SDS011;8595;52.542;11.974;2023-03-14T04:21:07;1.95;;;1.73;;
16957;SDS011;8595;52.542;11.974;2023-03-14T04:23:34;6.10;;;2.10;;
16957;SDS011;8595;52.542;11.974;2023-03-14T04:26:03;3.00;;;2.03;;
16957;SDS011;8595;52.542;11.974;2023-03-14T04:28:30;2.70;;;1.80;;
16957;SDS011;8595;52.542;11.974;2023-03-14T04:30:57;1.98;;;1.73;;
16957;SDS011;8595;52.542;11.974;2023-03-14T04:33:24;2.42;;;1.70;;
16957;SDS011;8595;52.542;11.974;2023-03-14T04:35:52;2.90;;;1.70;;
16957;SDS011;8595;52.542;11.974;2023-03-14T04:38:20;2.05;;;1.92;;
16957;SDS011;8595;52.542;11.974;2023-03-14T04:40:47;3.63;;;1.95;;
16957;SDS011;8595;52.542;11.974;2023-03-14T04:43:15;4.30;;;1.95;;
16957;SDS011;8595;52.542;11.974;2023-03-14T04:45:41;3.22;;;2.08;;
16957;SDS011;8595;52.542;11.974;2023-03-14T04:48:08;5.60;;;2.40;;
16957;SDS011;8595;52.542;11.974;2023-03-14T04:50:35;2.85;;;1.77;;
16957;SDS011;8595;52.542;11.974;2023-03-14T04:53:02;3.25;;;1.85;;
16957;SDS011;8595;52.542;11.974;2023-03-14T04:55:29;4.68;;;2.00;;
16957;SDS011;8595;52.542;11.974;2023-03-14T04:57:57;3.47;;;1.80;;
16957;SDS011;8595;52.542;11.974;2023-03-14T05:00:25;2.78;;;1.70;;
16957;SDS011;8595;52.542;11.974;2023-03-14T05:02:51;2.65;;;1.65;;
16957;SDS011;8595;52.542;11.974;2023-03-14T05:05:18;2.78;;;1.70;;
16957;SDS011;8595;52.542;11.974;2023-03-14T05:07:45;2.58;;;1.65;;
16957;SDS011;8595;52.542;11.974;2023-03-14T05:10:12;2.65;;;2.05;;
16957;SDS011;8595;52.542;11.974;2023-03-14T05:12:39;7.72;;;1.92;;
16957;SDS011;8595;52.542;11.974;2023-03-14T05:15:06;3.38;;;2.08;;
16957;SDS011;8595;52.542;11.974;2023-03-14T05:17:35;4.47;;;2.65;;
16957;SDS011;8595;52.542;11.974;2023-03-14T05:20:02;3.95;;;2.20;;
16957;SDS011;8595;52.542;11.974;2023-03-14T05:22:32;2.67;;;2.10;;
16957;SDS011;8595;52.542;11.974;2023-03-14T05:24:59;3.13;;;2.03;;
16957;SDS011;8595;52.542;11.974;2023-03-14T05:27:26;2.40;;;1.67;;
16957;SDS011;8595;52.542;11.974;2023-03-14T05:29:52;4.13;;;1.95;;
16957;SDS011;8595;52.542;11.974;2023-03-14T05:32:19;2.38;;;1.85;;
16957;SDS011;8595;52.542;11.974;2023-03-14T05:34:47;2.20;;;2.00;;
16957;SDS011;8595;52.542;11.974;2023-03-14T05:37:14;2.40;;;2.05;;
16957;SDS011;8595;52.542;11.974;2023-03-14T05:39:40;3.33;;;2.03;;
16957;SDS011;8595;52.542;11.974;2023-03-14T05:42:07;3.58;;;2.47;;
16957;SDS011;8595;52.542;11.974;2023-03-14T05:44:34;3.50;;;2.00;;
16957;SDS011;8595;52.542;11.974;2023-03-14T05:47:00;3.70;;;2.08;;
16957;SDS011;8595;52.542;11.974;2023-03-14T05:49:27;3.67;;;2.30;;
16957;SDS011;8595;52.542;11.974;2023-03-14T05:51:55;1.98;;;1.73;;
16957;SDS011;8595;52.542;11.974;2023-03-14T05:54:22;4.70;;;2.08;;
16957;SDS011;8595;52.542;11.974;2023-03-14T05:56:48;5.00;;;2.03;;
16957;SDS011;8595;52.542;11.974;2023-03-14T05:59:15;5.38;;;2.30;;
16957;SDS011;8595;52.542;11.974;2023-03-14T06:01:41;3.85;;;2.15;;
16957;SDS011;8595;52.542;11.974;2023-03-14T06:04:09;3.28;;;1.92;;
16957;SDS011;8595;52.542;11.974;2023-03-14T06:06:36;5.38;;;2.30;;
16957;SDS011;8595;52.542;11.974;2023-03-14T06:09:04;3.25;;;1.98;;
16957;SDS011;8595;52.542;11.974;2023-03-14T06:11:31;3.20;;;1.98;;
16957;SDS011;8595;52.542;11.974;2023-03-14T06:13:58;4.25;;;1.77;;
16957;SDS011;8595;52.542;11.974;2023-03-14T06:16:24;5.50;;;2.50;;
16957;SDS011;8595;52.542;11.974;2023-03-14T06:18:51;5.57;;;2.40;;
16957;SDS011;8595;52.542;11.974;2023-03-14T06:21:18;4.93;;;1.48;;
16957;SDS011;8595;52.542;11.974;2023-03-14T06:23:44;4.68;;;2.08;;
16957;SDS011;8595;52.542;11.974;2023-03-14T06:26:13;4.03;;;1.90;;
16957;SDS011;8595;52.542;11.974;2023-03-14T06:28:39;3.75;;;2.15;;
16957;SDS011;8595;52.542;11.974;2023-03-14T06:31:06;4.68;;;2.88;;
16957;SDS011;8595;52.542;11.974;2023-03-14T06:33:33;3.50;;;2.20;;
16957;SDS011;8595;52.542;11.974;2023-03-14T06:35:59;7.32;;;2.80;;
16957;SDS011;8595;52.542;11.974;2023-03-14T06:38:26;8.30;;;3.28;;
16957;SDS011;8595;52.542;11.974;2023-03-14T06:40:53;3.90;;;2.60;;
16957;SDS011;8595;52.542;11.974;2023-03-14T06:43:20;3.00;;;2.20;;
16957;SDS011;8595;52.542;11.974;2023-03-14T06:45:47;3.53;;;2.10;;
16957;SDS011;8595;52.542;11.974;2023-03-14T06:48:14;3.38;;;2.10;;
16957;SDS011;8595;52.542;11.974;2023-03-14T06:50:41;3.35;;;2.00;;
16957;SDS011;8595;52.542;11.974;2023-03-14T06:53:08;6.53;;;1.83;;
16957;SDS011;8595;52.542;11.974;2023-03-14T06:55:34;5.72;;;2.22;;
16957;SDS011;8595;52.542;11.974;2023-03-14T06:58:01;3.42;;;2.05;;
16957;SDS011;8595;52.542;11.974;2023-03-14T07:00:29;5.43;;;1.90;;
16957;SDS011;8595;52.542;11.974;2023-03-14T07:02:56;4.22;;;2.20;;
16957;SDS011;8595;52.542;11.974;2023-03-14T07:05:22;4.93;;;2.60;;
16957;SDS011;8595;52.542;11.974;2023-03-14T07:07:49;3.63;;;2.42;;
16957;SDS011;8595;52.542;11.974;2023-03-14T07:10:16;3.45;;;1.85;;
16957;SDS011;8595;52.542;11.974;2023-03-14T07:12:43;6.65;;;2.13;;
16957;SDS011;8595;52.542;11.974;2023-03-14T07:15:09;8.43;;;2.20;;
16957;SDS011;8595;52.542;11.974;2023-03-14T07:17:38;4.00;;;1.77;;
16957;SDS011;8595;52.542;11.974;2023-03-14T07:20:05;3.83;;;1.65;;
16957;SDS011;8595;52.542;11.974;2023-03-14T07:22:34;2.25;;;1.80;;
16957;SDS011;8595;52.542;11.974;2023-03-14T07:25:00;3.15;;;1.52;;
16957;SDS011;8595;52.542;11.974;2023-03-14T07:27:27;2.63;;;1.75;;
16957;SDS011;8595;52.542;11.974;2023-03-14T07:29:54;1.80;;;1.70;;
16957;SDS011;8595;52.542;11.974;2023-03-14T07:32:20;4.22;;;2.08;;
16957;SDS011;8595;52.542;11.974;2023-03-14T07:34:48;2.13;;;1.92;;
16957;SDS011;8595;52.542;11.974;2023-03-14T07:37:15;14.93;;;6.50;;
16957;SDS011;8595;52.542;11.974;2023-03-14T07:39:42;4.85;;;2.28;;
16957;SDS011;8595;52.542;11.974;2023-03-14T07:42:08;4.28;;;2.15;;
16957;SDS011;8595;52.542;11.974;2023-03-14T07:44:36;6.00;;;2.08;;
16957;SDS011;8595;52.542;11.974;2023-03-14T07:47:02;4.93;;;2.00;;
16957;SDS011;8595;52.542;11.974;2023-03-14T07:49:29;2.95;;;1.50;;
16957;SDS011;8595;52.542;11.974;2023-03-14T07:51:57;5.07;;;2.17;;
16957;SDS011;8595;52.542;11.974;2023-03-14T07:54:24;2.78;;;1.90;;
16957;SDS011;8595;52.542;11.974;2023-03-14T07:56:50;2.95;;;1.70;;
16957;SDS011;8595;52.542;11.974;2023-03-14T07:59:17;3.85;;;2.10;;
16957;SDS011;8595;52.542;11.974;2023-03-14T08:01:44;3.70;;;1.42;;
16957;SDS011;8595;52.542;11.974;2023-03-14T08:04:11;5.28;;;1.67;;
16957;SDS011;8595;52.542;11.974;2023-03-14T08:06:38;2.65;;;1.65;;
16957;SDS011;8595;52.542;11.974;2023-03-14T08:09:06;2.05;;;1.30;;
16957;SDS011;8595;52.542;11.974;2023-03-14T08:11:32;3.58;;;1.73;;
16957;SDS011;8595;52.542;11.974;2023-03-14T08:13:59;3.03;;;1.20;;
16957;SDS011;8595;52.542;11.974;2023-03-14T08:16:26;2.78;;;1.38;;
16957;SDS011;8595;52.542;11.974;2023-03-14T08:18:52;2.80;;;1.40;;
16957;SDS011;8595;52.542;11.974;2023-03-14T08:21:19;2.83;;;1.15;;
16957;SDS011;8595;52.542;11.974;2023-03-14T08:23:46;2.50;;;1.10;;
16957;SDS011;8595;52.542;11.974;2023-03-14T08:26:14;2.53;;;1.30;;
16957;SDS011;8595;52.542;11.974;2023-03-14T08:28:40;2.28;;;1.10;;
16957;SDS011;8595;52.542;11.974;2023-03-14T08:31:07;2.88;;;1.30;;
16957;SDS011;8595;52.542;11.974;2023-03-14T08:33:34;2.72;;;1.40;;
16957;SDS011;8595;52.542;11.974;2023-03-14T08:36:01;2.92;;;1.20;;
16957;SDS011;8595;52.542;11.974;2023-03-14T08:38:27;4.78;;;1.50;;
16957;SDS011;8595;52.542;11.974;2023-03-14T08:40:57;3.90;;;1.67;;
16957;SDS011;8595;52.542;11.974;2023-03-14T08:43:25;4.07;;;1.80;;
16957;SDS011;8595;52.542;11.974;2023-03-14T08:45:52;5.22;;;1.30;;
16957;SDS011;8595;52.542;11.974;2023-03-14T08:48:19;3.72;;;1.55;;
16957;SDS011;8595;52.542;11.974;2023-03-14T08:50:46;3.97;;;1.20;;
16957;SDS011;8595;52.542;11.974;2023-03-14T08:53:13;2.70;;;1.30;;
16957;SDS011;8595;52.542;11.974;2023-03-14T08:55:39;3.30;;;1.52;;
16957;SDS011;8595;52.542;11.974;2023-03-14T08:58:06;2.85;;;1.25;;
16957;SDS011;8595;52.542;11.974;2023-03-14T09:00:34;3.85;;;1.50;;
16957;SDS011;8595;52.542;11.974;2023-03-14T09:03:01;5.45;;;1.42;;
16957;SDS011;8595;52.542;11.974;2023-03-14T09:05:27;4.43;;;1.98;;
16957;SDS011;8595;52.542;11.974;2023-03-14T09:07:54;9.95;;;1.70;;
16957;SDS011;8595;52.542;11.974;2023-03-14T09:10:21;3.20;;;1.60;;
16957;SDS011;8595;52.542;11.974;2023-03-14T09:12:47;2.72;;;1.52;;
16957;SDS011;8595;52.542;11.974;2023-03-14T09:15:14;5.00;;;1.73;;
16957;SDS011;8595;52.542;11.974;2023-03-14T09:17:43;4.10;;;1.85;;
16957;SDS011;8595;52.542;11.974;2023-03-14T09:20:10;2.78;;;1.20;;
16957;SDS011;8595;52.542;11.974;2023-03-14T09:22:38;1.92;;;1.60;;
16957;SDS011;8595;52.542;11.974;2023-03-14T09:25:06;3.22;;;1.50;;
16957;SDS011;8595;52.542;11.974;2023-03-14T09:27:33;3.58;;;1.60;;
16957;SDS011;8595;52.542;11.974;2023-03-14T09:30:00;3.55;;;1.50;;
16957;SDS011;8595;52.542;11.974;2023-03-14T09:32:27;4.47;;;1.77;;
16957;SDS011;8595;52.542;11.974;2023-03-14T09:34:55;3.13;;;1.80;;
16957;SDS011;8595;52.542;11.974;2023-03-14T09:37:21;4.28;;;1.90;;
16957;SDS011;8595;52.542;11.974;2023-03-14T09:39:48;6.35;;;3.45;;
16957;SDS011;8595;52.542;11.974;2023-03-14T09:42:16;2.72;;;1.73;;
16957;SDS011;8595;52.542;11.974;2023-03-14T09:44:47;6.88;;;3.83;;
16957;SDS011;8595;52.542;11.974;2023-03-14T09:47:19;3.58;;;2.47;;
16957;SDS011;8595;52.542;11.974;2023-03-14T09:49:47;13.95;;;7.70;;
16957;SDS011;8595;52.542;11.974;2023-03-14T09:52:15;5.82;;;2.80;;
16957;SDS011;8595;52.542;11.974;2023-03-14T09:54:48;6.95;;;2.13;;
16957;SDS011;8595;52.542;11.974;2023-03-14T09:57:17;8.25;;;1.67;;
16957;SDS011;8595;52.542;11.974;2023-03-14T09:59:45;2.60;;;1.45;;
16957;SDS011;8595;52.542;11.974;2023-03-14T10:02:15;3.10;;;2.08;;
16957;SDS011;8595;52.542;11.974;2023-03-14T10:04:45;2.92;;;1.92;;
16957;SDS011;8595;52.542;11.974;2023-03-14T10:07:14;2.78;;;1.50;;
16957;SDS011;8595;52.542;11.974;2023-03-14T10:09:44;6.28;;;3.08;;
16957;SDS011;8595;52.542;11.974;2023-03-14T10:12:13;2.83;;;1.90;;
16957;SDS011;8595;52.542;11.974;2023-03-14T10:14:44;4.82;;;1.50;;
16957;SDS011;8595;52.542;11.974;2023-03-14T10:17:13;2.35;;;1.40;;
16957;SDS011;8595;52.542;11.974;2023-03-14T10:19:50;2.78;;;1.45;;
16957;SDS011;8595;52.542;11.974;2023-03-14T10:22:19;2.47;;;1.77;;
16957;SDS011;8595;52.542;11.974;2023-03-14T10:24:49;1.63;;;1.27;;
16957;SDS011;8595;52.542;11.974;2023-03-14T10:27:19;1.58;;;1.23;;
16957;SDS011;8595;52.542;11.974;2023-03-14T10:29:51;3.20;;;1.88;;
16957;SDS011;8595;52.542;11.974;2023-03-14T10:32:20;2.03;;;1.42;;
16957;SDS011;8595;52.542;11.974;2023-03-14T10:35:03;2.38;;;1.38;;
16957;SDS011;8595;52.542;11.974;2023-03-14T10:37:53;2.10;;;1.20;;
16957;SDS011;8595;52.542;11.974;2023-03-14T10:40:26;2.53;;;1.40;;
16957;SDS011;8595;52.542;11.974;2023-03-14T10:42:56;2.10;;;1.30;;
16957;SDS011;8595;52.542;11.974;2023-03-14T10:45:31;5.03;;;2.45;;
16957;SDS011;8595;52.542;11.974;2023-03-14T10:48:05;1.80;;;1.60;;
16957;SDS011;8595;52.542;11.974;2023-03-14T10:50:47;3.03;;;1.95;;
16957;SDS011;8595;52.542;11.974;2023-03-14T10:53:17;3.03;;;1.55;;
16957;SDS011;8595;52.542;11.974;2023-03-14T10:55:44;2.85;;;1.88;;
16957;SDS011;8595;52.542;11.974;2023-03-14T10:58:21;3.05;;;1.70;;
16957;SDS011;8595;52.542;11.974;2023-03-14T11:00:51;4.28;;;1.85;;
16957;SDS011;8595;52.542;11.974;2023-03-14T11:03:23;1.20;;;1.10;;
16957;SDS011;8595;52.542;11.974;2023-03-14T11:05:53;2.42;;;1.05;;
16957;SDS011;8595;52.542;11.974;2023-03-14T11:08:25;1.05;;;1.05;;
16957;SDS011;8595;52.542;11.974;2023-03-14T11:10:57;1.45;;;1.23;;
16957;SDS011;8595;52.542;11.974;2023-03-14T11:13:37;1.38;;;1.20;;
16957;SDS011;8595;52.542;11.974;2023-03-14T11:16:13;1.42;;;1.30;;
16957;SDS011;8595;52.542;11.974;2023-03-14T11:18:51;3.42;;;1.50;;
16957;SDS011;8595;52.542;11.974;2023-03-14T11:21:25;3.83;;;1.27;;
16957;SDS011;8595;52.542;11.974;2023-03-14T11:24:02;2.78;;;1.20;;
16957;SDS011;8595;52.542;11.974;2023-03-14T11:26:44;3.28;;;1.55;;
16957;SDS011;8595;52.542;11.974;2023-03-14T11:29:20;4.57;;;1.73;;
16957;SDS011;8595;52.542;11.974;2023-03-14T11:31:51;3.97;;;2.00;;
16957;SDS011;8595;52.542;11.974;2023-03-14T11:34:23;2.45;;;1.42;;
16957;SDS011;8595;52.542;11.974;2023-03-14T11:36:55;2.20;;;1.38;;
16957;SDS011;8595;52.542;11.974;2023-03-14T11:39:29;1.70;;;1.30;;
16957;SDS011;8595;52.542;11.974;2023-03-14T11:42:02;3.08;;;1.60;;
16957;SDS011;8595;52.542;11.974;2023-03-14T11:44:30;1.63;;;1.52;;
16957;SDS011;8595;52.542;11.974;2023-03-14T11:47:01;2.47;;;1.42;;
16957;SDS011;8595;52.542;11.974;2023-03-14T11:49:32;2.45;;;1.65;;
16957;SDS011;8595;52.542;11.974;2023-03-14T11:52:05;5.28;;;1.15;;
16957;SDS011;8595;52.542;11.974;2023-03-14T11:54:38;1.73;;;1.17;;
16957;SDS011;8595;52.542;11.974;2023-03-14T11:57:11;1.45;;;1.00;;
16957;SDS011;8595;52.542;11.974;2023-03-14T11:59:41;2.95;;;1.27;;
16957;SDS011;8595;52.542;11.974;2023-03-14T12:02:17;2.15;;;1.20;;
16957;SDS011;8595;52.542;11.974;2023-03-14T12:04:52;1.67;;;1.58;;
16957;SDS011;8595;52.542;11.974;2023-03-14T12:07:44;1.45;;;1.30;;
16957;SDS011;8595;52.542;11.974;2023-03-14T12:10:30;1.40;;;1.30;;
16957;SDS011;8595;52.542;11.974;2023-03-14T12:13:03;0.80;;;0.80;;
16957;SDS011;8595;52.542;11.974;2023-03-14T12:15:31;2.15;;;0.90;;
16957;SDS011;8595;52.542;11.974;2023-03-14T12:18:11;0.63;;;0.63;;
16957;SDS011;8595;52.542;11.974;2023-03-14T12:20:50;1.02;;;0.85;;
16957;SDS011;8595;52.542;11.974;2023-03-14T12:23:19;1.15;;;1.00;;
16957;SDS011;8595;52.542;11.974;2023-03-14T12:25:47;1.73;;;0.90;;
16957;SDS011;8595;52.542;11.974;2023-03-14T12:28:32;0.95;;;0.88;;
16957;SDS011;8595;52.542;11.974;2023-03-14T12:31:06;1.70;;;1.10;;
16957;SDS011;8595;52.542;11.974;2023-03-14T12:34:03;1.48;;;1.10;;
16957;SDS011;8595;52.542;11.974;2023-03-14T12:36:48;5.07;;;1.15;;
16957;SDS011;8595;52.542;11.974;2023-03-14T12:39:25;1.30;;;0.98;;
16957;SDS011;8595;52.542;11.974;2023-03-14T12:42:03;2.33;;;1.00;;
16957;SDS011;8595;52.542;11.974;2023-03-14T12:50:42;0.85;;;0.85;;
16957;SDS011;8595;52.542;11.974;2023-03-14T12:53:16;0.93;;;0.88;;
16957;SDS011;8595;52.542;11.974;2023-03-14T12:56:06;0.70;;;0.70;;
16957;SDS011;8595;52.542;11.974;2023-03-14T12:58:49;1.42;;;1.30;;
16957;SDS011;8595;52.542;11.974;2023-03-14T13:01:26;1.17;;;0.95;;
16957;SDS011;8595;52.542;11.974;2023-03-14T13:03:54;1.15;;;1.00;;
16957;SDS011;8595;52.542;11.974;2023-03-14T13:12:16;3.00;;;1.00;;
16957;SDS011;8595;52.542;11.974;2023-03-14T13:14:45;1.15;;;1.15;;
16957;SDS011;8595;52.542;11.974;2023-03-14T13:17:15;0.80;;;0.80;;
16957;SDS011;8595;52.542;11.974;2023-03-14T13:19:49;0.80;;;0.80;;
16957;SDS011;8595;52.542;11.974;2023-03-14T13:22:20;1.77;;;0.80;;
16957;SDS011;8595;52.542;11.974;2023-03-14T13:24:50;1.40;;;0.82;;
16957;SDS011;8595;52.542;11.974;2023-03-14T13:27:24;0.95;;;0.90;;
16957;SDS011;8595;52.542;11.974;2023-03-14T13:29:53;1.05;;;0.90;;
16957;SDS011;8595;52.542;11.974;2023-03-14T13:32:20;2.00;;;0.82;;
16957;SDS011;8595;52.542;11.974;2023-03-14T13:34:48;0.90;;;0.90;;
16957;SDS011;8595;52.542;11.974;2023-03-14T13:37:16;1.13;;;1.13;;
16957;SDS011;8595;52.542;11.974;2023-03-14T13:39:48;3.95;;;1.95;;
16957;SDS011;8595;52.542;11.974;2023-03-14T13:42:15;4.00;;;1.35;;
16957;SDS011;8595;52.542;11.974;2023-03-14T13:44:43;8.48;;;1.80;;
16957;SDS011;8595;52.542;11.974;2023-03-14T13:47:12;2.70;;;1.92;;
16957;SDS011;8595;52.542;11.974;2023-03-14T13:49:42;3.20;;;2.45;;
16957;SDS011;8595;52.542;11.974;2023-03-14T13:52:23;2.65;;;1.98;;
16957;SDS011;8595;52.542;11.974;2023-03-14T13:54:54;3.40;;;3.10;;
16957;SDS011;8595;52.542;11.974;2023-03-14T13:57:20;4.90;;;2.55;;
16957;SDS011;8595;52.542;11.974;2023-03-14T13:59:58;4.72;;;2.78;;
16957;SDS011;8595;52.542;11.974;2023-03-14T14:02:27;2.95;;;2.75;;
16957;SDS011;8595;52.542;11.974;2023-03-14T14:04:55;5.90;;;3.80;;
16957;SDS011;8595;52.542;11.974;2023-03-14T14:07:22;2.10;;;2.00;;
16957;SDS011;8595;52.542;11.974;2023-03-14T14:09:49;1.90;;;1.70;;
16957;SDS011;8595;52.542;11.974;2023-03-14T14:12:18;1.98;;;1.42;;
16957;SDS011;8595;52.542;11.974;2023-03-14T14:14:50;1.57;;;1.40;;
16957;SDS011;8595;52.542;11.974;2023-03-14T14:17:23;2.00;;;1.57;;
16957;SDS011;8595;52.542;11.974;2023-03-14T14:19:54;8.17;;;3.63;;
16957;SDS011;8595;52.542;11.974;2023-03-14T14:22:22;2.40;;;2.07;;
16957;SDS011;8595;52.542;11.974;2023-03-14T14:24:49;4.10;;;1.90;;
16957;SDS011;8595;52.542;11.974;2023-03-14T14:27:17;2.03;;;1.63;;
16957;SDS011;8595;52.542;11.974;2023-03-14T14:29:56;1.93;;;1.80;;
16957;SDS011;8595;52.542;11.974;2023-03-14T14:32:24;1.73;;;1.63;;
16957;SDS011;8595;52.542;11.974;2023-03-14T14:34:57;2.47;;;1.90;;
16957;SDS011;8595;52.542;11.974;2023-03-14T14:37:26;2.10;;;1.80;;
16957;SDS011;8595;52.542;11.974;2023-03-14T14:39:55;1.70;;;1.60;;
16957;SDS011;8595;52.542;11.974;2023-03-14T14:42:25;1.77;;;1.60;;
16957;SDS011;8595;52.542;11.974;2023-03-14T14:44:53;1.87;;;1.70;;
16957;SDS011;8595;52.542;11.974;2023-03-14T14:47:22;1.63;;;1.50;;
16957;SDS011;8595;52.542;11.974;2023-03-14T14:49:50;3.43;;;1.70;;
16957;SDS011;8595;52.542;11.974;2023-03-14T14:52:20;2.13;;;1.93;;
16957;SDS011;8595;52.542;11.974;2023-03-14T14:54:51;2.63;;;1.87;;
16957;SDS011;8595;52.542;11.974;2023-03-14T14:57:21;6.70;;;2.30;;
16957;SDS011;8595;52.542;11.974;2023-03-14T14:59:50;3.27;;;2.37;;
16957;SDS011;8595;52.542;11.974;2023-03-14T15:02:28;2.23;;;1.87;;
16957;SDS011;8595;52.542;11.974;2023-03-14T15:04:56;3.50;;;2.13;;
16957;SDS011;8595;52.542;11.974;2023-03-14T15:07:24;2.93;;;1.83;;
16957;SDS011;8595;52.542;11.974;2023-03-14T15:09:51;4.10;;;2.43;;
16957;SDS011;8595;52.542;11.974;2023-03-14T15:12:18;6.53;;;2.10;;